sensor_id;sensor_type;location;lat;lon;timestamp;P1;durP1;ratioP1;P2;durP2;ratioP2
6378;SDS011;3222;48.858;10.128;2023-11-19T00:02:12;33.73;;;12.27;;
6378;SDS011;3222;48.858;10.128;2023-11-19T00:04:37;24.03;;;9.00;;
6378;SDS011;3222;48.858;10.128;2023-11-19T00:07:06;25.17;;;9.47;;
6378;SDS011;3222;48.858;10.128;2023-11-19T00:09:33;26.50;;;11.07;;
6378;SDS011;3222;48.858;10.128;2023-11-19T00:11:59;30.00;;;11.97;;
6378;SDS011;3222;48.858;10.128;2023-11-19T00:14:25;32.13;;;14.37;;
6378;SDS011;3222;48.858;10.128;2023-11-19T00:16:51;36.67;;;14.73;;
6378;SDS011;3222;48.858;10.128;2023-11-19T00:19:19;36.30;;;14.87;;
6378;SDS011;3222;48.858;10.128;2023-11-19T00:21:44;28.63;;;12.90;;
6378;SDS011;3222;48.858;10.128;2023-11-19T00:24:11;27.23;;;13.40;;
6378;SDS011;3222;48.858;10.128;2023-11-19T00:26:37;24.50;;;11.13;;
6378;SDS011;3222;48.858;10.128;2023-11-19T00:29:07;18.53;;;10.37;;
6378;SDS011;3222;48.858;10.128;2023-11-19T00:31:32;18.50;;;10.00;;
6378;SDS011;3222;48.858;10.128;2023-11-19T00:33:58;14.93;;;9.10;;
6378;SDS011;3222;48.858;10.128;2023-11-19T00:36:24;13.10;;;8.10;;
6378;SDS011;3222;48.858;10.128;2023-11-19T00:38:50;10.60;;;7.00;;
6378;SDS011;3222;48.858;10.128;2023-11-19T00:41:17;9.90;;;6.50;;
6378;SDS011;3222;48.858;10.128;2023-11-19T00:43:43;8.73;;;6.03;;
6378;SDS011;3222;48.858;10.128;2023-11-19T00:46:10;7.00;;;4.97;;
6378;SDS011;3222;48.858;10.128;2023-11-19T00:48:41;5.53;;;4.43;;
6378;SDS011;3222;48.858;10.128;2023-11-19T00:51:07;5.90;;;4.33;;
6378;SDS011;3222;48.858;10.128;2023-11-19T00:53:33;4.87;;;3.60;;
6378;SDS011;3222;48.858;10.128;2023-11-19T00:56:01;4.33;;;3.40;;
6378;SDS011;3222;48.858;10.128;2023-11-19T00:58:27;3.40;;;2.80;;
6378;SDS011;3222;48.858;10.128;2023-11-19T01:00:53;3.57;;;2.67;;
6378;SDS011;3222;48.858;10.128;2023-11-19T01:03:18;2.73;;;2.23;;
6378;SDS011;3222;48.858;10.128;2023-11-19T01:05:44;2.93;;;2.23;;
6378;SDS011;3222;48.858;10.128;2023-11-19T01:08:12;4.90;;;3.03;;
6378;SDS011;3222;48.858;10.128;2023-11-19T01:10:37;2.93;;;2.63;;
6378;SDS011;3222;48.858;10.128;2023-11-19T01:13:04;2.77;;;2.50;;
6378;SDS011;3222;48.858;10.128;2023-11-19T01:15:33;3.43;;;2.47;;
6378;SDS011;3222;48.858;10.128;2023-11-19T01:17:58;2.73;;;2.37;;
6378;SDS011;3222;48.858;10.128;2023-11-19T01:20:24;2.20;;;2.00;;
6378;SDS011;3222;48.858;10.128;2023-11-19T01:22:51;2.13;;;2.03;;
6378;SDS011;3222;48.858;10.128;2023-11-19T01:25:17;3.03;;;2.30;;
6378;SDS011;3222;48.858;10.128;2023-11-19T01:27:43;1.97;;;1.70;;
6378;SDS011;3222;48.858;10.128;2023-11-19T01:30:10;1.70;;;1.60;;
6378;SDS011;3222;48.858;10.128;2023-11-19T01:32:38;2.27;;;1.60;;
6378;SDS011;3222;48.858;10.128;2023-11-19T01:35:05;1.57;;;1.53;;
6378;SDS011;3222;48.858;10.128;2023-11-19T01:37:31;1.80;;;1.70;;
6378;SDS011;3222;48.858;10.128;2023-11-19T01:39:57;1.70;;;1.60;;
6378;SDS011;3222;48.858;10.128;2023-11-19T01:42:23;1.70;;;1.60;;
6378;SDS011;3222;48.858;10.128;2023-11-19T01:44:59;1.70;;;1.60;;
6378;SDS011;3222;48.858;10.128;2023-11-19T01:47:26;1.53;;;1.43;;
6378;SDS011;3222;48.858;10.128;2023-11-19T01:49:54;1.40;;;1.40;;
6378;SDS011;3222;48.858;10.128;2023-11-19T01:52:21;2.50;;;1.60;;
6378;SDS011;3222;48.858;10.128;2023-11-19T01:54:47;1.37;;;1.37;;
6378;SDS011;3222;48.858;10.128;2023-11-19T01:57:14;1.70;;;1.60;;
6378;SDS011;3222;48.858;10.128;2023-11-19T01:59:40;1.63;;;1.53;;
6378;SDS011;3222;48.858;10.128;2023-11-19T02:02:07;1.50;;;1.40;;
6378;SDS011;3222;48.858;10.128;2023-11-19T02:04:33;1.50;;;1.40;;
6378;SDS011;3222;48.858;10.128;2023-11-19T02:07:00;1.70;;;1.60;;
6378;SDS011;3222;48.858;10.128;2023-11-19T02:09:26;1.50;;;1.50;;
6378;SDS011;3222;48.858;10.128;2023-11-19T02:11:52;1.40;;;1.30;;
6378;SDS011;3222;48.858;10.128;2023-11-19T02:14:19;1.73;;;1.63;;
6378;SDS011;3222;48.858;10.128;2023-11-19T02:16:51;1.93;;;1.50;;
6378;SDS011;3222;48.858;10.128;2023-11-19T02:19:20;3.13;;;1.50;;
6378;SDS011;3222;48.858;10.128;2023-11-19T02:21:46;1.70;;;1.60;;
6378;SDS011;3222;48.858;10.128;2023-11-19T02:24:12;2.10;;;1.70;;
6378;SDS011;3222;48.858;10.128;2023-11-19T02:29:25;2.27;;;1.87;;
6378;SDS011;3222;48.858;10.128;2023-11-19T02:31:51;2.00;;;1.90;;
6378;SDS011;3222;48.858;10.128;2023-11-19T02:34:17;2.03;;;1.93;;
6378;SDS011;3222;48.858;10.128;2023-11-19T02:36:43;2.57;;;2.37;;
6378;SDS011;3222;48.858;10.128;2023-11-19T02:39:08;1.80;;;1.70;;
6378;SDS011;3222;48.858;10.128;2023-11-19T02:41:37;2.07;;;1.83;;
6378;SDS011;3222;48.858;10.128;2023-11-19T02:44:05;1.33;;;1.33;;
6378;SDS011;3222;48.858;10.128;2023-11-19T02:46:32;1.70;;;1.60;;
6378;SDS011;3222;48.858;10.128;2023-11-19T02:48:58;1.80;;;1.70;;
6378;SDS011;3222;48.858;10.128;2023-11-19T02:51:23;1.50;;;1.40;;
6378;SDS011;3222;48.858;10.128;2023-11-19T02:53:49;1.70;;;1.60;;
6378;SDS011;3222;48.858;10.128;2023-11-19T02:56:15;1.40;;;1.40;;
6378;SDS011;3222;48.858;10.128;2023-11-19T02:58:45;1.70;;;1.50;;
6378;SDS011;3222;48.858;10.128;2023-11-19T03:01:11;1.60;;;1.50;;
6378;SDS011;3222;48.858;10.128;2023-11-19T03:03:49;1.30;;;1.30;;
6378;SDS011;3222;48.858;10.128;2023-11-19T03:06:20;1.77;;;1.67;;
6378;SDS011;3222;48.858;10.128;2023-11-19T03:08:48;1.70;;;1.60;;
6378;SDS011;3222;48.858;10.128;2023-11-19T03:11:14;1.20;;;1.20;;
6378;SDS011;3222;48.858;10.128;2023-11-19T03:13:40;1.47;;;1.43;;
6378;SDS011;3222;48.858;10.128;2023-11-19T03:16:07;1.30;;;1.30;;
6378;SDS011;3222;48.858;10.128;2023-11-19T03:18:32;1.47;;;1.37;;
6378;SDS011;3222;48.858;10.128;2023-11-19T03:20:58;1.53;;;1.50;;
6378;SDS011;3222;48.858;10.128;2023-11-19T03:23:24;1.47;;;1.40;;
6378;SDS011;3222;48.858;10.128;2023-11-19T03:25:53;1.30;;;1.30;;
6378;SDS011;3222;48.858;10.128;2023-11-19T03:28:20;1.60;;;1.50;;
6378;SDS011;3222;48.858;10.128;2023-11-19T03:30:46;1.30;;;1.30;;
6378;SDS011;3222;48.858;10.128;2023-11-19T03:33:12;1.30;;;1.30;;
6378;SDS011;3222;48.858;10.128;2023-11-19T03:35:37;1.57;;;1.47;;
6378;SDS011;3222;48.858;10.128;2023-11-19T03:38:03;1.30;;;1.30;;
6378;SDS011;3222;48.858;10.128;2023-11-19T03:40:29;1.40;;;1.40;;
6378;SDS011;3222;48.858;10.128;2023-11-19T03:42:58;1.30;;;1.30;;
6378;SDS011;3222;48.858;10.128;2023-11-19T03:45:24;1.20;;;1.20;;
6378;SDS011;3222;48.858;10.128;2023-11-19T03:47:50;1.37;;;1.37;;
6378;SDS011;3222;48.858;10.128;2023-11-19T03:50:16;1.47;;;1.47;;
6378;SDS011;3222;48.858;10.128;2023-11-19T03:52:43;1.30;;;1.30;;
6378;SDS011;3222;48.858;10.128;2023-11-19T03:55:08;1.67;;;1.47;;
6378;SDS011;3222;48.858;10.128;2023-11-19T03:57:34;1.30;;;1.30;;
6378;SDS011;3222;48.858;10.128;2023-11-19T04:00:00;1.40;;;1.40;;
6378;SDS011;3222;48.858;10.128;2023-11-19T04:02:38;1.20;;;1.20;;
6378;SDS011;3222;48.858;10.128;2023-11-19T04:05:03;1.30;;;1.30;;
6378;SDS011;3222;48.858;10.128;2023-11-19T04:07:30;1.30;;;1.30;;
6378;SDS011;3222;48.858;10.128;2023-11-19T04:09:56;1.50;;;1.40;;
6378;SDS011;3222;48.858;10.128;2023-11-19T04:12:22;1.10;;;1.10;;
6378;SDS011;3222;48.858;10.128;2023-11-19T04:14:49;1.30;;;1.30;;
6378;SDS011;3222;48.858;10.128;2023-11-19T04:17:15;1.20;;;1.20;;
6378;SDS011;3222;48.858;10.128;2023-11-19T04:19:40;1.30;;;1.30;;
6378;SDS011;3222;48.858;10.128;2023-11-19T04:22:10;1.50;;;1.40;;
6378;SDS011;3222;48.858;10.128;2023-11-19T04:24:36;1.30;;;1.20;;
6378;SDS011;3222;48.858;10.128;2023-11-19T04:27:04;1.23;;;1.23;;
6378;SDS011;3222;48.858;10.128;2023-11-19T04:29:31;1.23;;;1.20;;
6378;SDS011;3222;48.858;10.128;2023-11-19T04:31:57;1.30;;;1.30;;
6378;SDS011;3222;48.858;10.128;2023-11-19T04:34:23;1.27;;;1.10;;
6378;SDS011;3222;48.858;10.128;2023-11-19T04:36:49;1.13;;;1.13;;
6378;SDS011;3222;48.858;10.128;2023-11-19T04:39:15;1.13;;;1.07;;
6378;SDS011;3222;48.858;10.128;2023-11-19T04:41:50;1.20;;;1.20;;
6378;SDS011;3222;48.858;10.128;2023-11-19T04:44:19;1.10;;;1.10;;
6378;SDS011;3222;48.858;10.128;2023-11-19T04:46:45;1.07;;;1.07;;
6378;SDS011;3222;48.858;10.128;2023-11-19T04:49:12;1.10;;;1.10;;
6378;SDS011;3222;48.858;10.128;2023-11-19T04:51:43;1.10;;;1.10;;
6378;SDS011;3222;48.858;10.128;2023-11-19T04:54:10;1.00;;;1.00;;
6378;SDS011;3222;48.858;10.128;2023-11-19T04:56:36;1.00;;;1.00;;
6378;SDS011;3222;48.858;10.128;2023-11-19T04:59:03;0.90;;;0.90;;
6378;SDS011;3222;48.858;10.128;2023-11-19T05:01:30;1.03;;;1.03;;
6378;SDS011;3222;48.858;10.128;2023-11-19T05:03:56;0.90;;;0.90;;
6378;SDS011;3222;48.858;10.128;2023-11-19T05:06:28;1.20;;;1.17;;
6378;SDS011;3222;48.858;10.128;2023-11-19T05:08:55;1.00;;;1.00;;
6378;SDS011;3222;48.858;10.128;2023-11-19T05:11:21;1.10;;;1.00;;
6378;SDS011;3222;48.858;10.128;2023-11-19T05:13:47;1.80;;;1.00;;
6378;SDS011;3222;48.858;10.128;2023-11-19T05:16:13;1.00;;;1.00;;
6378;SDS011;3222;48.858;10.128;2023-11-19T05:18:40;1.00;;;1.00;;
6378;SDS011;3222;48.858;10.128;2023-11-19T05:21:06;1.20;;;1.10;;
6378;SDS011;3222;48.858;10.128;2023-11-19T05:23:32;2.00;;;1.10;;
6378;SDS011;3222;48.858;10.128;2023-11-19T05:25:59;1.00;;;1.00;;
6378;SDS011;3222;48.858;10.128;2023-11-19T05:28:28;0.97;;;0.97;;
6378;SDS011;3222;48.858;10.128;2023-11-19T05:30:54;1.00;;;1.00;;
6378;SDS011;3222;48.858;10.128;2023-11-19T05:33:20;1.20;;;1.20;;
6378;SDS011;3222;48.858;10.128;2023-11-19T05:35:46;1.23;;;1.23;;
6378;SDS011;3222;48.858;10.128;2023-11-19T05:38:12;1.27;;;1.20;;
6378;SDS011;3222;48.858;10.128;2023-11-19T05:40:38;1.20;;;1.20;;
6378;SDS011;3222;48.858;10.128;2023-11-19T05:43:04;1.00;;;1.00;;
6378;SDS011;3222;48.858;10.128;2023-11-19T05:45:31;1.00;;;1.00;;
6378;SDS011;3222;48.858;10.128;2023-11-19T05:47:57;1.17;;;1.17;;
6378;SDS011;3222;48.858;10.128;2023-11-19T05:50:24;1.00;;;1.00;;
6378;SDS011;3222;48.858;10.128;2023-11-19T05:52:50;1.00;;;1.00;;
6378;SDS011;3222;48.858;10.128;2023-11-19T05:55:17;1.10;;;1.10;;
6378;SDS011;3222;48.858;10.128;2023-11-19T05:57:44;1.20;;;1.20;;
6378;SDS011;3222;48.858;10.128;2023-11-19T06:00:10;1.30;;;1.20;;
6378;SDS011;3222;48.858;10.128;2023-11-19T06:02:38;1.33;;;1.23;;
6378;SDS011;3222;48.858;10.128;2023-11-19T06:05:04;1.17;;;1.17;;
6378;SDS011;3222;48.858;10.128;2023-11-19T06:07:32;1.27;;;1.27;;
6378;SDS011;3222;48.858;10.128;2023-11-19T06:09:58;1.20;;;1.20;;
6378;SDS011;3222;48.858;10.128;2023-11-19T06:12:24;0.97;;;0.97;;
6378;SDS011;3222;48.858;10.128;2023-11-19T06:14:49;1.00;;;1.00;;
6378;SDS011;3222;48.858;10.128;2023-11-19T06:17:15;1.10;;;1.10;;
6378;SDS011;3222;48.858;10.128;2023-11-19T06:19:41;1.07;;;1.07;;
6378;SDS011;3222;48.858;10.128;2023-11-19T06:22:06;1.40;;;1.10;;
6378;SDS011;3222;48.858;10.128;2023-11-19T06:24:32;1.10;;;1.10;;
6378;SDS011;3222;48.858;10.128;2023-11-19T06:26:58;1.00;;;1.00;;
6378;SDS011;3222;48.858;10.128;2023-11-19T06:29:24;1.00;;;1.00;;
6378;SDS011;3222;48.858;10.128;2023-11-19T06:31:50;1.03;;;1.03;;
6378;SDS011;3222;48.858;10.128;2023-11-19T06:34:16;1.17;;;1.17;;
6378;SDS011;3222;48.858;10.128;2023-11-19T06:36:42;1.27;;;1.27;;
6378;SDS011;3222;48.858;10.128;2023-11-19T06:39:09;1.40;;;1.40;;
6378;SDS011;3222;48.858;10.128;2023-11-19T06:41:36;1.27;;;1.17;;
6378;SDS011;3222;48.858;10.128;2023-11-19T06:44:05;1.23;;;1.23;;
6378;SDS011;3222;48.858;10.128;2023-11-19T06:46:30;1.30;;;1.20;;
6378;SDS011;3222;48.858;10.128;2023-11-19T06:48:56;1.27;;;1.27;;
6378;SDS011;3222;48.858;10.128;2023-11-19T06:51:22;1.17;;;1.10;;
6378;SDS011;3222;48.858;10.128;2023-11-19T06:53:49;1.17;;;1.17;;
6378;SDS011;3222;48.858;10.128;2023-11-19T06:56:19;1.20;;;1.20;;
6378;SDS011;3222;48.858;10.128;2023-11-19T06:58:49;1.00;;;1.00;;
6378;SDS011;3222;48.858;10.128;2023-11-19T07:01:16;1.30;;;1.20;;
6378;SDS011;3222;48.858;10.128;2023-11-19T07:03:43;1.10;;;1.10;;
6378;SDS011;3222;48.858;10.128;2023-11-19T07:06:12;1.13;;;1.13;;
6378;SDS011;3222;48.858;10.128;2023-11-19T07:08:38;1.10;;;1.10;;
6378;SDS011;3222;48.858;10.128;2023-11-19T07:11:06;2.10;;;1.23;;
6378;SDS011;3222;48.858;10.128;2023-11-19T07:13:31;1.03;;;1.03;;
6378;SDS011;3222;48.858;10.128;2023-11-19T07:15:57;1.00;;;1.00;;
6378;SDS011;3222;48.858;10.128;2023-11-19T07:18:23;1.07;;;1.00;;
6378;SDS011;3222;48.858;10.128;2023-11-19T07:20:50;0.90;;;0.90;;
6378;SDS011;3222;48.858;10.128;2023-11-19T07:23:15;1.10;;;1.10;;
6378;SDS011;3222;48.858;10.128;2023-11-19T07:25:42;1.30;;;1.30;;
6378;SDS011;3222;48.858;10.128;2023-11-19T07:28:08;1.40;;;1.30;;
6378;SDS011;3222;48.858;10.128;2023-11-19T07:30:35;1.20;;;1.20;;
6378;SDS011;3222;48.858;10.128;2023-11-19T07:33:01;1.33;;;1.20;;
6378;SDS011;3222;48.858;10.128;2023-11-19T07:35:29;1.10;;;1.10;;
6378;SDS011;3222;48.858;10.128;2023-11-19T07:37:56;1.70;;;1.30;;
6378;SDS011;3222;48.858;10.128;2023-11-19T07:40:23;1.07;;;1.07;;
6378;SDS011;3222;48.858;10.128;2023-11-19T07:42:49;1.00;;;1.00;;
6378;SDS011;3222;48.858;10.128;2023-11-19T07:45:15;1.10;;;1.10;;
6378;SDS011;3222;48.858;10.128;2023-11-19T07:47:42;1.13;;;1.13;;
6378;SDS011;3222;48.858;10.128;2023-11-19T07:50:11;1.07;;;1.07;;
6378;SDS011;3222;48.858;10.128;2023-11-19T07:52:39;0.90;;;0.90;;
6378;SDS011;3222;48.858;10.128;2023-11-19T07:55:05;1.37;;;1.20;;
6378;SDS011;3222;48.858;10.128;2023-11-19T07:57:31;1.00;;;1.00;;
6378;SDS011;3222;48.858;10.128;2023-11-19T07:59:57;2.67;;;1.00;;
6378;SDS011;3222;48.858;10.128;2023-11-19T08:02:23;1.00;;;1.00;;
6378;SDS011;3222;48.858;10.128;2023-11-19T08:04:52;0.93;;;0.93;;
6378;SDS011;3222;48.858;10.128;2023-11-19T08:07:20;0.90;;;0.90;;
6378;SDS011;3222;48.858;10.128;2023-11-19T08:09:48;0.97;;;0.97;;
6378;SDS011;3222;48.858;10.128;2023-11-19T08:12:14;1.37;;;1.37;;
6378;SDS011;3222;48.858;10.128;2023-11-19T08:14:41;0.80;;;0.80;;
6378;SDS011;3222;48.858;10.128;2023-11-19T08:17:06;1.10;;;1.10;;
6378;SDS011;3222;48.858;10.128;2023-11-19T08:19:32;1.00;;;1.00;;
6378;SDS011;3222;48.858;10.128;2023-11-19T08:21:58;0.90;;;0.90;;
6378;SDS011;3222;48.858;10.128;2023-11-19T08:24:23;0.80;;;0.80;;
6378;SDS011;3222;48.858;10.128;2023-11-19T08:26:49;1.07;;;0.87;;
6378;SDS011;3222;48.858;10.128;2023-11-19T08:29:15;0.80;;;0.80;;
6378;SDS011;3222;48.858;10.128;2023-11-19T08:31:41;2.20;;;1.00;;
6378;SDS011;3222;48.858;10.128;2023-11-19T08:34:07;0.87;;;0.80;;
6378;SDS011;3222;48.858;10.128;2023-11-19T08:36:34;0.90;;;0.90;;
6378;SDS011;3222;48.858;10.128;2023-11-19T08:39:00;1.00;;;1.00;;
6378;SDS011;3222;48.858;10.128;2023-11-19T08:41:25;1.07;;;1.00;;
6378;SDS011;3222;48.858;10.128;2023-11-19T08:43:52;1.93;;;1.40;;
6378;SDS011;3222;48.858;10.128;2023-11-19T08:46:18;1.00;;;1.00;;
6378;SDS011;3222;48.858;10.128;2023-11-19T08:48:43;1.10;;;1.10;;
6378;SDS011;3222;48.858;10.128;2023-11-19T08:51:09;1.00;;;1.00;;
6378;SDS011;3222;48.858;10.128;2023-11-19T08:53:35;1.10;;;1.00;;
6378;SDS011;3222;48.858;10.128;2023-11-19T08:56:01;1.00;;;1.00;;
6378;SDS011;3222;48.858;10.128;2023-11-19T08:58:28;1.10;;;1.10;;
6378;SDS011;3222;48.858;10.128;2023-11-19T09:00:54;1.00;;;1.00;;
6378;SDS011;3222;48.858;10.128;2023-11-19T09:03:19;1.00;;;1.00;;
6378;SDS011;3222;48.858;10.128;2023-11-19T09:05:46;0.93;;;0.93;;
6378;SDS011;3222;48.858;10.128;2023-11-19T09:08:11;0.90;;;0.90;;
6378;SDS011;3222;48.858;10.128;2023-11-19T09:10:37;0.80;;;0.80;;
6378;SDS011;3222;48.858;10.128;2023-11-19T09:13:03;0.80;;;0.80;;
6378;SDS011;3222;48.858;10.128;2023-11-19T09:15:29;0.97;;;0.97;;
6378;SDS011;3222;48.858;10.128;2023-11-19T09:17:54;0.90;;;0.90;;
6378;SDS011;3222;48.858;10.128;2023-11-19T09:20:21;0.97;;;0.97;;
6378;SDS011;3222;48.858;10.128;2023-11-19T09:22:47;0.90;;;0.90;;
6378;SDS011;3222;48.858;10.128;2023-11-19T09:25:13;0.80;;;0.80;;
6378;SDS011;3222;48.858;10.128;2023-11-19T09:27:42;0.80;;;0.80;;
6378;SDS011;3222;48.858;10.128;2023-11-19T09:30:10;1.37;;;1.03;;
6378;SDS011;3222;48.858;10.128;2023-11-19T09:32:36;0.90;;;0.90;;
6378;SDS011;3222;48.858;10.128;2023-11-19T09:35:03;0.80;;;0.80;;
6378;SDS011;3222;48.858;10.128;2023-11-19T09:37:29;0.90;;;0.90;;
6378;SDS011;3222;48.858;10.128;2023-11-19T09:39:54;0.90;;;0.90;;
6378;SDS011;3222;48.858;10.128;2023-11-19T09:42:20;1.00;;;1.00;;
6378;SDS011;3222;48.858;10.128;2023-11-19T09:44:46;1.13;;;0.90;;
6378;SDS011;3222;48.858;10.128;2023-11-19T09:47:14;0.87;;;0.87;;
6378;SDS011;3222;48.858;10.128;2023-11-19T09:49:41;0.90;;;0.90;;
6378;SDS011;3222;48.858;10.128;2023-11-19T09:52:07;1.00;;;1.00;;
6378;SDS011;3222;48.858;10.128;2023-11-19T09:54:32;1.53;;;0.90;;
6378;SDS011;3222;48.858;10.128;2023-11-19T09:56:58;1.00;;;1.00;;
6378;SDS011;3222;48.858;10.128;2023-11-19T09:59:29;1.10;;;1.00;;
6378;SDS011;3222;48.858;10.128;2023-11-19T10:01:56;0.90;;;0.90;;
6378;SDS011;3222;48.858;10.128;2023-11-19T10:04:22;1.00;;;1.00;;
6378;SDS011;3222;48.858;10.128;2023-11-19T10:06:49;0.90;;;0.90;;
6378;SDS011;3222;48.858;10.128;2023-11-19T10:09:16;1.00;;;1.00;;
6378;SDS011;3222;48.858;10.128;2023-11-19T10:11:42;1.37;;;1.13;;
6378;SDS011;3222;48.858;10.128;2023-11-19T10:14:08;2.03;;;1.10;;
6378;SDS011;3222;48.858;10.128;2023-11-19T10:16:34;0.93;;;0.93;;
6378;SDS011;3222;48.858;10.128;2023-11-19T10:19:00;1.53;;;1.00;;
6378;SDS011;3222;48.858;10.128;2023-11-19T10:21:26;1.07;;;1.07;;
6378;SDS011;3222;48.858;10.128;2023-11-19T10:26:21;1.90;;;1.10;;
6378;SDS011;3222;48.858;10.128;2023-11-19T10:28:47;2.50;;;1.00;;
6378;SDS011;3222;48.858;10.128;2023-11-19T10:31:13;1.10;;;1.10;;
6378;SDS011;3222;48.858;10.128;2023-11-19T10:33:40;1.53;;;1.13;;
6378;SDS011;3222;48.858;10.128;2023-11-19T10:36:06;2.10;;;1.00;;
6378;SDS011;3222;48.858;10.128;2023-11-19T10:38:32;1.40;;;1.30;;
6378;SDS011;3222;48.858;10.128;2023-11-19T10:40:59;1.87;;;1.50;;
6378;SDS011;3222;48.858;10.128;2023-11-19T10:43:24;1.70;;;1.60;;
6378;SDS011;3222;48.858;10.128;2023-11-19T10:45:51;1.63;;;1.53;;
6378;SDS011;3222;48.858;10.128;2023-11-19T10:48:17;1.67;;;1.57;;
6378;SDS011;3222;48.858;10.128;2023-11-19T10:50:43;1.70;;;1.60;;
6378;SDS011;3222;48.858;10.128;2023-11-19T10:53:11;1.50;;;1.40;;
6378;SDS011;3222;48.858;10.128;2023-11-19T10:55:43;2.83;;;1.30;;
6378;SDS011;3222;48.858;10.128;2023-11-19T10:58:12;1.20;;;1.20;;
6378;SDS011;3222;48.858;10.128;2023-11-19T11:00:45;1.40;;;1.30;;
6378;SDS011;3222;48.858;10.128;2023-11-19T11:03:20;2.07;;;1.90;;
6378;SDS011;3222;48.858;10.128;2023-11-19T11:05:50;5.23;;;4.83;;
6378;SDS011;3222;48.858;10.128;2023-11-19T11:08:17;5.17;;;4.67;;
6378;SDS011;3222;48.858;10.128;2023-11-19T11:10:53;4.07;;;3.70;;
6378;SDS011;3222;48.858;10.128;2023-11-19T11:13:22;3.17;;;2.90;;
6378;SDS011;3222;48.858;10.128;2023-11-19T11:15:49;2.33;;;2.13;;
6378;SDS011;3222;48.858;10.128;2023-11-19T11:18:16;1.70;;;1.60;;
6378;SDS011;3222;48.858;10.128;2023-11-19T11:20:45;1.30;;;1.30;;
6378;SDS011;3222;48.858;10.128;2023-11-19T11:29:01;1.30;;;1.20;;
6378;SDS011;3222;48.858;10.128;2023-11-19T11:31:34;1.50;;;1.40;;
6378;SDS011;3222;48.858;10.128;2023-11-19T11:39:57;1.10;;;1.10;;
6378;SDS011;3222;48.858;10.128;2023-11-19T11:50:14;1.10;;;1.00;;
6378;SDS011;3222;48.858;10.128;2023-11-19T11:55:37;1.00;;;1.00;;
6378;SDS011;3222;48.858;10.128;2023-11-19T11:58:20;1.40;;;1.30;;
6378;SDS011;3222;48.858;10.128;2023-11-19T12:00:47;1.37;;;1.20;;
6378;SDS011;3222;48.858;10.128;2023-11-19T12:03:14;1.63;;;1.40;;
6378;SDS011;3222;48.858;10.128;2023-11-19T12:05:44;1.13;;;1.10;;
6378;SDS011;3222;48.858;10.128;2023-11-19T12:08:10;1.10;;;1.10;;
6378;SDS011;3222;48.858;10.128;2023-11-19T12:11:12;1.10;;;1.00;;
6378;SDS011;3222;48.858;10.128;2023-11-19T12:16:20;1.30;;;1.20;;
6378;SDS011;3222;48.858;10.128;2023-11-19T12:18:46;1.30;;;1.20;;
6378;SDS011;3222;48.858;10.128;2023-11-19T12:21:26;2.30;;;1.77;;
6378;SDS011;3222;48.858;10.128;2023-11-19T12:23:54;2.90;;;1.97;;
6378;SDS011;3222;48.858;10.128;2023-11-19T12:26:30;1.70;;;1.60;;
6378;SDS011;3222;48.858;10.128;2023-11-19T12:29:00;1.70;;;1.40;;
6378;SDS011;3222;48.858;10.128;2023-11-19T12:31:29;3.00;;;1.80;;
6378;SDS011;3222;48.858;10.128;2023-11-19T12:33:55;3.00;;;1.37;;
6378;SDS011;3222;48.858;10.128;2023-11-19T12:36:21;1.70;;;1.60;;
6378;SDS011;3222;48.858;10.128;2023-11-19T12:38:47;1.50;;;1.40;;
6378;SDS011;3222;48.858;10.128;2023-11-19T12:41:14;1.77;;;1.67;;
6378;SDS011;3222;48.858;10.128;2023-11-19T12:43:43;2.00;;;1.90;;
6378;SDS011;3222;48.858;10.128;2023-11-19T12:46:21;3.20;;;2.20;;
6378;SDS011;3222;48.858;10.128;2023-11-19T12:48:48;1.80;;;1.70;;
6378;SDS011;3222;48.858;10.128;2023-11-19T12:51:14;1.83;;;1.70;;
6378;SDS011;3222;48.858;10.128;2023-11-19T12:53:49;1.70;;;1.60;;
6378;SDS011;3222;48.858;10.128;2023-11-19T12:56:20;2.40;;;2.20;;
6378;SDS011;3222;48.858;10.128;2023-11-19T12:58:47;2.53;;;2.33;;
6378;SDS011;3222;48.858;10.128;2023-11-19T13:01:19;3.00;;;2.70;;
6378;SDS011;3222;48.858;10.128;2023-11-19T13:03:46;3.53;;;2.93;;
6378;SDS011;3222;48.858;10.128;2023-11-19T13:06:14;3.40;;;3.10;;
6378;SDS011;3222;48.858;10.128;2023-11-19T13:08:41;2.67;;;2.43;;
6378;SDS011;3222;48.858;10.128;2023-11-19T13:11:13;2.60;;;2.40;;
6378;SDS011;3222;48.858;10.128;2023-11-19T13:13:58;2.03;;;1.90;;
6378;SDS011;3222;48.858;10.128;2023-11-19T13:16:26;2.83;;;2.13;;
6378;SDS011;3222;48.858;10.128;2023-11-19T13:18:52;1.80;;;1.70;;
6378;SDS011;3222;48.858;10.128;2023-11-19T13:21:18;1.40;;;1.30;;
6378;SDS011;3222;48.858;10.128;2023-11-19T13:23:44;2.77;;;1.60;;
6378;SDS011;3222;48.858;10.128;2023-11-19T13:26:10;1.20;;;1.20;;
6378;SDS011;3222;48.858;10.128;2023-11-19T13:28:36;1.43;;;1.37;;
6378;SDS011;3222;48.858;10.128;2023-11-19T13:31:02;1.60;;;1.50;;
6378;SDS011;3222;48.858;10.128;2023-11-19T13:33:29;2.90;;;1.20;;
6378;SDS011;3222;48.858;10.128;2023-11-19T13:35:54;1.30;;;1.20;;
6378;SDS011;3222;48.858;10.128;2023-11-19T13:38:20;1.40;;;1.30;;
6378;SDS011;3222;48.858;10.128;2023-11-19T13:40:48;3.60;;;1.20;;
6378;SDS011;3222;48.858;10.128;2023-11-19T13:43:13;2.00;;;1.10;;
6378;SDS011;3222;48.858;10.128;2023-11-19T13:45:40;1.67;;;1.30;;
6378;SDS011;3222;48.858;10.128;2023-11-19T13:48:05;3.43;;;1.13;;
6378;SDS011;3222;48.858;10.128;2023-11-19T13:50:31;2.07;;;1.20;;
6378;SDS011;3222;48.858;10.128;2023-11-19T13:52:59;1.30;;;1.30;;
6378;SDS011;3222;48.858;10.128;2023-11-19T13:55:25;3.07;;;1.53;;
6378;SDS011;3222;48.858;10.128;2023-11-19T13:57:51;1.80;;;1.70;;
6378;SDS011;3222;48.858;10.128;2023-11-19T14:00:16;2.53;;;1.80;;
6378;SDS011;3222;48.858;10.128;2023-11-19T14:02:44;1.60;;;1.50;;
6378;SDS011;3222;48.858;10.128;2023-11-19T14:05:12;2.57;;;1.57;;
6378;SDS011;3222;48.858;10.128;2023-11-19T14:07:39;1.83;;;1.43;;
6378;SDS011;3222;48.858;10.128;2023-11-19T14:10:05;2.00;;;1.73;;
6378;SDS011;3222;48.858;10.128;2023-11-19T14:12:34;1.77;;;1.67;;
6378;SDS011;3222;48.858;10.128;2023-11-19T14:15:01;2.13;;;1.50;;
6378;SDS011;3222;48.858;10.128;2023-11-19T14:17:27;1.40;;;1.30;;
6378;SDS011;3222;48.858;10.128;2023-11-19T14:19:53;1.77;;;1.53;;
6378;SDS011;3222;48.858;10.128;2023-11-19T14:22:19;1.33;;;1.27;;
6378;SDS011;3222;48.858;10.128;2023-11-19T14:24:45;1.87;;;1.53;;
6378;SDS011;3222;48.858;10.128;2023-11-19T14:27:10;1.70;;;1.60;;
6378;SDS011;3222;48.858;10.128;2023-11-19T14:29:36;1.97;;;1.70;;
6378;SDS011;3222;48.858;10.128;2023-11-19T14:32:03;2.10;;;1.60;;
6378;SDS011;3222;48.858;10.128;2023-11-19T14:34:29;1.60;;;1.50;;
6378;SDS011;3222;48.858;10.128;2023-11-19T14:36:56;1.60;;;1.50;;
6378;SDS011;3222;48.858;10.128;2023-11-19T14:39:22;1.50;;;1.40;;
6378;SDS011;3222;48.858;10.128;2023-11-19T14:41:47;1.83;;;1.60;;
6378;SDS011;3222;48.858;10.128;2023-11-19T14:44:14;1.40;;;1.30;;
6378;SDS011;3222;48.858;10.128;2023-11-19T14:46:40;1.33;;;1.23;;
6378;SDS011;3222;48.858;10.128;2023-11-19T14:49:06;2.63;;;1.40;;
6378;SDS011;3222;48.858;10.128;2023-11-19T14:51:37;2.27;;;1.27;;
6378;SDS011;3222;48.858;10.128;2023-11-19T14:54:04;4.07;;;1.70;;
6378;SDS011;3222;48.858;10.128;2023-11-19T14:56:31;3.27;;;1.80;;
6378;SDS011;3222;48.858;10.128;2023-11-19T14:58:57;2.07;;;1.73;;
6378;SDS011;3222;48.858;10.128;2023-11-19T15:01:23;3.43;;;1.97;;
6378;SDS011;3222;48.858;10.128;2023-11-19T15:03:50;2.63;;;1.73;;
6378;SDS011;3222;48.858;10.128;2023-11-19T15:06:22;2.43;;;1.67;;
6378;SDS011;3222;48.858;10.128;2023-11-19T15:08:48;1.40;;;1.30;;
6378;SDS011;3222;48.858;10.128;2023-11-19T15:11:14;1.87;;;1.33;;
6378;SDS011;3222;48.858;10.128;2023-11-19T15:13:40;2.60;;;1.30;;
6378;SDS011;3222;48.858;10.128;2023-11-19T15:16:07;1.10;;;1.00;;
6378;SDS011;3222;48.858;10.128;2023-11-19T15:18:37;2.97;;;1.13;;
6378;SDS011;3222;48.858;10.128;2023-11-19T15:21:03;1.17;;;1.10;;
6378;SDS011;3222;48.858;10.128;2023-11-19T15:23:29;1.07;;;1.07;;
6378;SDS011;3222;48.858;10.128;2023-11-19T15:25:54;1.23;;;1.13;;
6378;SDS011;3222;48.858;10.128;2023-11-19T15:28:20;2.73;;;1.97;;
6378;SDS011;3222;48.858;10.128;2023-11-19T15:30:46;2.57;;;2.20;;